createdAt,value
2023-05-10T00:02:21.997Z,100886.34
2023-05-10T00:04:48.681Z,100887.06
2023-05-10T00:07:15.196Z,100882.19
2023-05-10T00:09:41.666Z,100886.03
2023-05-10T00:12:08.139Z,100882.63
2023-05-10T00:14:34.650Z,100875.81
2023-05-10T00:17:01.251Z,100877.75
2023-05-10T00:19:27.801Z,100875.06
2023-05-10T00:21:54.281Z,100874.78
2023-05-10T00:24:20.766Z,100875.97
2023-05-10T00:26:47.209Z,100872.09
2023-05-10T00:29:13.962Z,100880.84
2023-05-10T00:31:40.426Z,100875.97
2023-05-10T00:34:06.924Z,100872.25
2023-05-10T00:36:33.499Z,100866.19
2023-05-10T00:39:00.342Z,100877.16
2023-05-10T00:41:27.005Z,100873.75
2023-05-10T00:43:54.568Z,100877.91
2023-05-10T00:46:21.478Z,100878.63
2023-05-10T00:48:48.422Z,100865.44
2023-05-10T00:51:15.047Z,100869.03
2023-05-10T00:53:41.803Z,100875.56
2023-05-10T00:56:08.616Z,100876.75
2023-05-10T00:58:35.575Z,100872.88
2023-05-10T01:01:02.406Z,100876.75
2023-05-10T01:03:29.106Z,100875.72
2023-05-10T01:05:56.277Z,100876.44
2023-05-10T01:08:22.879Z,100874.97
2023-05-10T01:10:50.621Z,100875.72
2023-05-10T01:13:30.705Z,100878.66
2023-05-10T01:15:57.639Z,100874.97
2023-05-10T01:18:25.117Z,100881.03
2023-05-10T01:21:20.260Z,100884.91
2023-05-10T01:23:57.306Z,100877.34
2023-05-10T01:26:48.634Z,100879.28
2023-05-10T01:29:37.761Z,100879.28
2023-05-10T01:32:07.070Z,100872.91
2023-05-10T01:35:00.179Z,100875.72
2023-05-10T01:37:37.130Z,100877.66
2023-05-10T01:40:14.246Z,100870.09
2023-05-10T01:42:48.794Z,100878.09
2023-05-10T01:45:47.562Z,100879.56
2023-05-10T01:48:15.859Z,100886.84
2023-05-10T01:50:44.865Z,100886.41
2023-05-10T01:53:14.028Z,100881.06
2023-05-10T01:55:53.271Z,100881.78
2023-05-10T01:58:32.916Z,100875.28
2023-05-10T02:01:02.476Z,100881.34
2023-05-10T02:03:30.599Z,100881.50
2023-05-10T02:05:58.750Z,100884.63
2023-05-10T02:08:26.077Z,100883.13
2023-05-10T02:10:57.391Z,100884.91
2023-05-10T02:13:25.744Z,100878.09
2023-05-10T02:15:54.639Z,100883.44
2023-05-10T02:18:24.274Z,100888.03
2023-05-10T02:20:52.099Z,100888.78
2023-05-10T02:23:19.732Z,100890.25
2023-05-10T02:25:48.413Z,100885.66
2023-05-10T02:28:16.371Z,100891.72
2023-05-10T02:30:43.846Z,100894.09
2023-05-10T02:33:12.548Z,100895.00
2023-05-10T02:35:39.316Z,100905.06
2023-05-10T02:38:08.236Z,100899.44
2023-05-10T02:40:36.463Z,100897.22
2023-05-10T02:43:03.581Z,100905.22
2023-05-10T02:45:33.112Z,100920.06
2023-05-10T02:48:00.908Z,100915.16
2023-05-10T02:50:31.070Z,100906.72
2023-05-10T02:53:03.001Z,100913.97
2023-05-10T02:55:36.589Z,100910.25
2023-05-10T02:58:04.229Z,100912.03
2023-05-10T03:00:30.854Z,100914.13
2023-05-10T03:02:57.593Z,100914.88
2023-05-10T03:05:25.514Z,100923.31
2023-05-10T03:07:53.319Z,100926.44
2023-05-10T03:10:21.811Z,100921.53
2023-05-10T03:13:36.237Z,100919.44
2023-05-10T03:16:16.433Z,100924.94
2023-05-10T03:18:48.938Z,100917.66
2023-05-10T03:21:18.799Z,100926.84
2023-05-10T03:23:48.931Z,100931.75
2023-05-10T03:26:21.459Z,100929.94
2023-05-10T03:28:50.366Z,100928.44
2023-05-10T03:31:18.400Z,100930.38
2023-05-10T03:33:49.399Z,100934.53
2023-05-10T03:36:18.848Z,100936.16
2023-05-10T03:38:45.489Z,100930.06
2023-05-10T03:41:12.317Z,100937.63
2023-05-10T03:43:39.412Z,100926.22
2023-05-10T03:46:06.631Z,100923.56
2023-05-10T03:48:34.286Z,100927.69
2023-05-10T03:51:00.941Z,100927.59
2023-05-10T03:53:27.930Z,100927.91
2023-05-10T03:55:54.656Z,100932.03
2023-05-10T03:58:21.306Z,100930.25
2023-05-10T04:00:47.781Z,100933.22
2023-05-10T04:03:15.238Z,100928.34
2023-05-10T04:05:41.917Z,100937.50
2023-05-10T04:08:08.398Z,100930.66
2023-05-10T04:10:35.243Z,100932.59
2023-05-10T04:13:01.845Z,100940.59
2023-05-10T04:15:28.444Z,100941.78
2023-05-10T04:17:55.101Z,100942.53
2023-05-10T04:20:21.749Z,100940.59
2023-05-10T04:22:48.367Z,100941.34
2023-05-10T04:25:14.821Z,100937.94
2023-05-10T04:27:41.279Z,100942.09
2023-05-10T04:30:08.315Z,100935.59
2023-05-10T04:32:34.864Z,100936.78
2023-05-10T04:35:03.770Z,100943.16
2023-05-10T04:37:30.282Z,100935.16
2023-05-10T04:39:56.741Z,100937.19
2023-05-10T04:42:23.916Z,100945.94
2023-05-10T04:44:50.374Z,100945.53
2023-05-10T04:47:17.240Z,100941.34
2023-05-10T04:49:43.876Z,100947.44
2023-05-10T04:52:10.273Z,100949.66
2023-05-10T04:54:36.760Z,100951.91
2023-05-10T04:57:03.239Z,100957.53
2023-05-10T04:59:29.681Z,100956.50
2023-05-10T05:01:56.236Z,100957.22
2023-05-10T05:04:24.356Z,100960.50
2023-05-10T05:06:53.636Z,100962.28
2023-05-10T05:09:20.764Z,100963.03
2023-05-10T05:11:47.326Z,100966.44
2023-05-10T05:14:13.816Z,100974.31
2023-05-10T05:16:40.368Z,100972.38
2023-05-10T05:19:06.875Z,100978.16
2023-05-10T05:21:33.549Z,100976.97
2023-05-10T05:24:00.072Z,100976.97
2023-05-10T05:26:27.447Z,100980.69
2023-05-10T05:28:55.568Z,100978.75
2023-05-10T05:31:22.435Z,100978.44
2023-05-10T05:33:48.969Z,100987.50
2023-05-10T05:36:15.533Z,100987.81
2023-05-10T05:38:41.997Z,100992.41
2023-05-10T05:41:08.460Z,100996.25
2023-05-10T05:43:37.466Z,100993.13
2023-05-10T05:46:05.073Z,100994.31
2023-05-10T05:48:32.271Z,100998.47
2023-05-10T05:50:58.917Z,100998.16
2023-05-10T05:53:25.742Z,100996.25
2023-05-10T05:55:54.062Z,101003.50
2023-05-10T05:58:21.062Z,101003.06
2023-05-10T06:00:47.603Z,101004.56
2023-05-10T06:03:14.248Z,101012.69
2023-05-10T06:05:40.835Z,101012.09
2023-05-10T06:08:07.488Z,101015.34
2023-05-10T06:10:33.956Z,101014.59
2023-05-10T06:13:00.858Z,101016.38
2023-05-10T06:15:27.821Z,101020.84
2023-05-10T06:17:54.444Z,101018.31
2023-05-10T06:20:20.896Z,101028.53
2023-05-10T06:22:47.389Z,101028.84
2023-05-10T06:25:15.372Z,101030.31
2023-05-10T06:27:41.955Z,101035.22
2023-05-10T06:30:13.472Z,101027.50
2023-05-10T06:32:40.387Z,101029.31
2023-05-10T06:35:07.483Z,101027.81
2023-05-10T06:37:34.106Z,101024.09
2023-05-10T06:40:01.436Z,101022.91
2023-05-10T06:42:28.296Z,101031.38
2023-05-10T06:44:54.808Z,101032.28
2023-05-10T06:47:21.315Z,101039.84
2023-05-10T06:49:47.811Z,101040.88
2023-05-10T06:52:14.363Z,101040.00
2023-05-10T06:54:40.920Z,101041.47
2023-05-10T06:57:16.182Z,101048.00
2023-05-10T06:59:50.207Z,101053.34
2023-05-10T07:02:16.752Z,101052.28
2023-05-10T07:04:43.443Z,101055.88
2023-05-10T07:07:09.923Z,101050.97
2023-05-10T07:09:36.415Z,101057.66
2023-05-10T07:12:03.001Z,101055.44
2023-05-10T07:14:29.584Z,101062.56
2023-05-10T07:16:56.355Z,101072.66
2023-05-10T07:19:22.952Z,101067.16
2023-05-10T07:21:49.376Z,101070.75
2023-05-10T07:24:15.774Z,101071.47
2023-05-10T07:26:42.230Z,101065.66
2023-05-10T07:29:08.784Z,101069.81
2023-05-10T07:31:35.309Z,101074.72
2023-05-10T07:34:01.794Z,101077.84
2023-05-10T07:36:28.722Z,101082.44
2023-05-10T07:38:55.256Z,101086.00
2023-05-10T07:41:22.129Z,101086.03
2023-05-10T07:43:48.711Z,101091.81
2023-05-10T07:46:15.255Z,101101.47
2023-05-10T07:48:42.318Z,101098.78
2023-05-10T07:51:10.345Z,101097.59
2023-05-10T07:53:36.957Z,101099.38
2023-05-10T07:56:25.832Z,101106.94
2023-05-10T07:58:52.838Z,101104.72
2023-05-10T08:01:19.481Z,101104.28
2023-05-10T08:03:46.129Z,101106.66
2023-05-10T08:06:13.073Z,101118.53
2023-05-10T08:08:42.089Z,101117.47
2023-05-10T08:11:08.951Z,101122.69
2023-05-10T08:13:35.729Z,101119.84
2023-05-10T08:16:02.609Z,101127.88
2023-05-10T08:18:29.214Z,101125.34
2023-05-10T08:20:55.684Z,101128.91
2023-05-10T08:23:22.289Z,101132.03
2023-05-10T08:25:48.782Z,101130.41
2023-05-10T08:28:15.250Z,101127.44
2023-05-10T08:30:41.788Z,101131.44
2023-05-10T08:33:08.374Z,101133.97
2023-05-10T08:35:35.897Z,101136.63
2023-05-10T08:38:02.511Z,101145.44
2023-05-10T08:40:29.182Z,101142.75
2023-05-10T08:43:02.748Z,101150.16
2023-05-10T08:45:33.971Z,101154.31
2023-05-10T08:48:06.883Z,101155.50
2023-05-10T08:50:49.251Z,101156.84
2023-05-10T08:53:17.264Z,101162.47
2023-05-10T08:55:43.978Z,101165.44
2023-05-10T08:58:10.886Z,101160.69
2023-05-10T09:00:40.942Z,101165.28
2023-05-10T09:03:08.129Z,101165.44
2023-05-10T09:05:34.678Z,101164.78
2023-05-10T09:08:03.966Z,101169.66
2023-05-10T09:10:31.580Z,101164.28
2023-05-10T09:12:59.616Z,101164.69
2023-05-10T09:15:26.921Z,101170.41
2023-05-10T09:17:53.836Z,101165.13
2023-05-10T09:20:20.608Z,101167.91
2023-05-10T09:22:47.060Z,101178.28
2023-05-10T09:25:16.369Z,101171.69
2023-05-10T09:27:46.778Z,101176.34
2023-05-10T09:30:18.645Z,101175.97
2023-05-10T09:32:48.201Z,101172.56
2023-05-10T09:35:17.849Z,101176.84
2023-05-10T09:37:48.737Z,101176.47
2023-05-10T09:40:20.775Z,101184.25
2023-05-10T09:43:04.592Z,101191.75
2023-05-10T09:45:36.131Z,101192.31
2023-05-10T09:48:04.246Z,101196.19
2023-05-10T09:50:31.736Z,101196.59
2023-05-10T09:53:00.086Z,101196.88
2023-05-10T09:55:39.299Z,101203.59
2023-05-10T09:58:10.357Z,101204.69
2023-05-10T10:00:38.722Z,101206.84
2023-05-10T10:03:05.919Z,101210.81
2023-05-10T10:05:36.549Z,101211.75
2023-05-10T10:08:07.039Z,101205.13
2023-05-10T10:10:34.694Z,101218.44
2023-05-10T10:13:03.576Z,101217.16
2023-05-10T10:15:30.166Z,101218.41
2023-05-10T10:17:56.702Z,101217.75
2023-05-10T10:20:24.190Z,101222.56
2023-05-10T10:22:50.853Z,101212.84
2023-05-10T10:25:19.585Z,101220.72
2023-05-10T10:27:52.450Z,101225.53
2023-05-10T10:30:32.472Z,101220.25
2023-05-10T10:33:20.569Z,101229.31
2023-05-10T10:35:56.390Z,101223.03
2023-05-10T10:38:23.721Z,101228.31
2023-05-10T10:41:03.403Z,101229.88
2023-05-10T10:43:30.474Z,101227.75
2023-05-10T10:46:19.361Z,101224.22
2023-05-10T10:48:52.455Z,101226.66
2023-05-10T10:51:19.127Z,101229.97
2023-05-10T10:53:48.986Z,101226.47
2023-05-10T10:56:16.476Z,101224.88
2023-05-10T10:58:54.680Z,101225.44
2023-05-10T11:01:21.527Z,101222.72
2023-05-10T11:04:06.539Z,101230.38
2023-05-10T11:06:35.162Z,101228.06
2023-05-10T11:09:13.368Z,101230.22
2023-05-10T11:11:56.113Z,101226.44
2023-05-10T11:14:23.651Z,101234.66
2023-05-10T11:16:50.517Z,101227.19
2023-05-10T11:19:18.465Z,101235.16
2023-05-10T11:22:05.153Z,101230.34
2023-05-10T11:24:31.855Z,101233.66
2023-05-10T11:26:58.339Z,101239.66
2023-05-10T11:29:27.253Z,101231.88
2023-05-10T11:31:57.519Z,101238.66
2023-05-10T11:34:32.150Z,101233.50
2023-05-10T11:36:58.964Z,101234.91
2023-05-10T11:39:29.993Z,101241.09
2023-05-10T11:41:57.309Z,101240.47
2023-05-10T11:44:24.288Z,101234.56
2023-05-10T11:46:51.044Z,101231.84
2023-05-10T11:49:18.792Z,101238.63
2023-05-10T11:51:45.284Z,101235.09
2023-05-10T11:54:12.409Z,101239.84
2023-05-10T11:56:40.373Z,101243.34
2023-05-10T11:59:07.086Z,101245.59
2023-05-10T12:01:33.960Z,101239.47
2023-05-10T12:04:01.817Z,101239.66
2023-05-10T12:06:30.584Z,101245.84
2023-05-10T12:08:57.145Z,101249.75
2023-05-10T12:11:28.325Z,101247.47
2023-05-10T12:13:56.255Z,101245.59
2023-05-10T12:16:25.003Z,101243.78
2023-05-10T12:18:57.076Z,101244.59
2023-05-10T12:21:24.584Z,101251.06
2023-05-10T12:23:53.327Z,101250.72
2023-05-10T12:26:23.453Z,101247.72
2023-05-10T12:28:49.898Z,101250.81
2023-05-10T12:31:17.009Z,101244.22
2023-05-10T12:33:47.339Z,101247.69
2023-05-10T12:36:16.180Z,101250.34
2023-05-10T12:38:44.561Z,101244.06
2023-05-10T12:41:13.964Z,101246.19
2023-05-10T12:43:41.022Z,101249.72
2023-05-10T12:46:13.800Z,101241.69
2023-05-10T12:48:41.856Z,101242.97
2023-05-10T12:51:18.022Z,101248.88
2023-05-10T12:53:48.706Z,101248.56
2023-05-10T12:56:16.155Z,101253.97
2023-05-10T12:58:44.059Z,101259.78
2023-05-10T13:01:11.109Z,101252.53
2023-05-10T13:03:37.620Z,101251.94
2023-05-10T13:06:04.283Z,101259.94
2023-05-10T13:08:34.178Z,101262.75
2023-05-10T13:11:01.689Z,101271.25
2023-05-10T13:13:28.148Z,101267.31
2023-05-10T13:15:54.610Z,101269.56
2023-05-10T13:18:21.380Z,101282.81
2023-05-10T13:20:47.876Z,101282.50
2023-05-10T13:23:14.335Z,101283.03
2023-05-10T13:25:40.894Z,101284.41
2023-05-10T13:28:07.383Z,101284.59
2023-05-10T13:30:33.817Z,101293.75
2023-05-10T13:33:00.361Z,101291.63
2023-05-10T13:35:26.937Z,101299.78
2023-05-10T13:37:54.447Z,101306.47
2023-05-10T13:40:20.892Z,101310.69
2023-05-10T13:42:47.421Z,101308.63
2023-05-10T13:45:14.138Z,101310.91
2023-05-10T13:47:40.808Z,101316.38
2023-05-10T13:50:07.982Z,101308.88
2023-05-10T13:52:34.623Z,101310.34
2023-05-10T13:55:01.085Z,101306.19
2023-05-10T13:57:31.178Z,101316.06
2023-05-10T13:59:58.262Z,101306.38
2023-05-10T14:02:25.540Z,101308.59
2023-05-10T14:04:52.366Z,101309.81
2023-05-10T14:07:18.846Z,101310.88
2023-05-10T14:09:45.293Z,101312.34
2023-05-10T14:12:12.355Z,101310.91
2023-05-10T14:14:38.851Z,101312.69
2023-05-10T14:17:05.420Z,101308.66
2023-05-10T14:19:33.500Z,101304.97
2023-05-10T14:21:59.940Z,101318.19
2023-05-10T14:24:26.481Z,101316.09
2023-05-10T14:26:54.637Z,101315.81
2023-05-10T14:29:22.101Z,101317.59
2023-05-10T14:31:48.596Z,101319.97
2023-05-10T14:34:15.099Z,101319.34
2023-05-10T14:36:41.514Z,101317.88
2023-05-10T14:39:08.867Z,101319.81
2023-05-10T14:41:35.321Z,101320.09
2023-05-10T14:44:02.468Z,101313.56
2023-05-10T14:46:29.062Z,101309.50
2023-05-10T14:48:55.611Z,101311.00
2023-05-10T14:51:22.818Z,101315.00
2023-05-10T14:53:50.234Z,101305.31
2023-05-10T14:56:16.627Z,101314.84
2023-05-10T14:58:43.049Z,101311.25
2023-05-10T15:01:09.532Z,101312.56
2023-05-10T15:03:36.715Z,101317.75
2023-05-10T15:06:04.893Z,101316.63
2023-05-10T15:08:31.304Z,101313.13
2023-05-10T15:10:57.844Z,101311.16
2023-05-10T15:13:24.299Z,101309.91
2023-05-10T15:15:50.875Z,101312.69
2023-05-10T15:18:17.559Z,101314.75
2023-05-10T15:20:44.208Z,101319.81
2023-05-10T15:23:10.650Z,101307.09
2023-05-10T15:25:38.149Z,101309.88
2023-05-10T15:28:05.833Z,101310.72
2023-05-10T15:30:32.370Z,101317.97
2023-05-10T15:32:59.104Z,101322.88
2023-05-10T15:35:26.902Z,101316.31
2023-05-10T15:37:53.351Z,101313.16
2023-05-10T15:40:20.335Z,101320.88
2023-05-10T15:42:46.787Z,101318.00
2023-05-10T15:45:13.895Z,101321.03
2023-05-10T15:47:40.572Z,101321.31
2023-05-10T15:50:08.359Z,101329.31
2023-05-10T15:52:35.072Z,101321.34
2023-05-10T15:55:01.558Z,101332.72
2023-05-10T15:57:28.046Z,101327.19
2023-05-10T15:59:54.489Z,101332.09
2023-05-10T16:02:23.643Z,101338.84
2023-05-10T16:04:50.306Z,101338.44
2023-05-10T16:07:16.774Z,101336.78
2023-05-10T16:09:43.301Z,101338.56
2023-05-10T16:12:09.815Z,101340.69
2023-05-10T16:14:36.518Z,101340.38
2023-05-10T16:17:04.259Z,101342.50
2023-05-10T16:19:33.794Z,101348.22
2023-05-10T16:22:00.524Z,101348.22
2023-05-10T16:24:27.099Z,101344.00
2023-05-10T16:26:53.682Z,101344.63
2023-05-10T16:29:20.203Z,101348.22
2023-05-10T16:31:46.921Z,101346.47
2023-05-10T16:34:13.664Z,101355.47
2023-05-10T16:36:40.378Z,101356.66
2023-05-10T16:39:06.897Z,101358.88
2023-05-10T16:41:34.312Z,101345.81
2023-05-10T16:44:01.416Z,101354.72
2023-05-10T16:46:28.047Z,101349.66
2023-05-10T16:48:54.554Z,101353.06
2023-05-10T16:51:21.352Z,101355.28
2023-05-10T16:53:47.866Z,101348.19
2023-05-10T16:56:14.365Z,101356.06
2023-05-10T16:58:40.819Z,101349.13
2023-05-10T17:01:07.482Z,101355.88
2023-05-10T17:03:34.212Z,101352.91
2023-05-10T17:06:00.942Z,101355.72
2023-05-10T17:08:27.552Z,101353.75
2023-05-10T17:10:54.029Z,101348.00
2023-05-10T17:13:20.586Z,101354.06
2023-05-10T17:15:47.510Z,101353.13
2023-05-10T17:18:13.997Z,101366.00
2023-05-10T17:20:43.142Z,101366.09
2023-05-10T17:23:09.582Z,101359.50
2023-05-10T17:25:36.686Z,101366.44
2023-05-10T17:28:04.487Z,101376.72
2023-05-10T17:30:32.607Z,101377.84
2023-05-10T17:33:02.571Z,101382.00
2023-05-10T17:35:30.678Z,101382.91
2023-05-10T17:37:57.514Z,101379.66
2023-05-10T17:40:24.090Z,101387.81
2023-05-10T17:42:50.514Z,101383.56
2023-05-10T17:45:17.449Z,101391.97
2023-05-10T17:47:44.164Z,101396.81
2023-05-10T17:50:10.941Z,101397.66
2023-05-10T17:52:37.578Z,101394.03
2023-05-10T17:55:04.311Z,101404.22
2023-05-10T17:57:31.955Z,101406.22
2023-05-10T17:59:58.353Z,101402.13
2023-05-10T18:02:24.814Z,101401.00
2023-05-10T18:04:51.476Z,101404.13
2023-05-10T18:07:17.963Z,101402.38
2023-05-10T18:09:44.410Z,101406.00
2023-05-10T18:12:10.807Z,101408.41
2023-05-10T18:14:41.211Z,101399.78
2023-05-10T18:17:08.979Z,101406.63
2023-05-10T18:19:35.635Z,101402.47
2023-05-10T18:22:02.092Z,101408.00
2023-05-10T18:24:38.421Z,101412.34
2023-05-10T18:27:06.575Z,101409.94
2023-05-10T18:29:33.089Z,101408.63
2023-05-10T18:31:59.583Z,101407.13
2023-05-10T18:34:26.008Z,101407.59
2023-05-10T18:36:52.975Z,101413.59
2023-05-10T18:39:19.688Z,101409.41
2023-05-10T18:41:46.316Z,101406.00
2023-05-10T18:44:12.841Z,101416.50
2023-05-10T18:46:39.481Z,101411.75
2023-05-10T18:49:08.303Z,101417.69
2023-05-10T18:51:34.961Z,101419.91
2023-05-10T18:54:01.427Z,101421.72
2023-05-10T18:56:27.962Z,101421.19
2023-05-10T18:58:54.418Z,101420.44
2023-05-10T19:01:21.274Z,101423.44
2023-05-10T19:03:47.727Z,101422.69
2023-05-10T19:06:14.185Z,101425.53
2023-05-10T19:08:40.717Z,101422.56
2023-05-10T19:11:07.122Z,101428.09
2023-05-10T19:13:33.746Z,101431.84
2023-05-10T19:16:05.813Z,101432.00
2023-05-10T19:18:33.744Z,101432.31
2023-05-10T19:21:04.347Z,101433.66
2023-05-10T19:23:34.808Z,101436.34
2023-05-10T19:26:01.408Z,101430.25
2023-05-10T19:28:27.918Z,101428.75
2023-05-10T19:30:54.490Z,101438.44
2023-05-10T19:33:20.993Z,101438.88
2023-05-10T19:35:49.864Z,101448.84
2023-05-10T19:38:16.255Z,101439.78
2023-05-10T19:40:42.686Z,101457.03
2023-05-10T19:43:17.269Z,101455.56
2023-05-10T19:45:44.057Z,101453.78
2023-05-10T19:48:11.037Z,101456.56
2023-05-10T19:50:38.556Z,101461.66
2023-05-10T19:53:05.178Z,101457.19
2023-05-10T19:55:32.646Z,101456.91
2023-05-10T19:58:02.369Z,101456.31
2023-05-10T20:00:29.178Z,101456.44
2023-05-10T20:02:55.948Z,101460.75
2023-05-10T20:05:22.834Z,101459.41
2023-05-10T20:07:49.958Z,101464.94
2023-05-10T20:10:17.572Z,101462.09
2023-05-10T20:12:52.483Z,101463.72
2023-05-10T20:15:21.698Z,101465.81
2023-05-10T20:17:49.227Z,101465.50
2023-05-10T20:20:16.660Z,101469.38
2023-05-10T20:22:44.500Z,101467.91
2023-05-10T20:25:11.643Z,101472.97
2023-05-10T20:27:38.461Z,101475.78
2023-05-10T20:30:06.169Z,101475.91
2023-05-10T20:32:33.036Z,101471.31
2023-05-10T20:34:59.712Z,101477.09
2023-05-10T20:37:27.647Z,101474.00
2023-05-10T20:39:55.333Z,101472.94
2023-05-10T20:42:22.794Z,101471.16
2023-05-10T20:44:50.064Z,101476.19
2023-05-10T20:47:17.376Z,101477.38
2023-05-10T20:49:44.019Z,101478.13
2023-05-10T20:52:10.864Z,101482.75
2023-05-10T20:54:37.318Z,101474.41
2023-05-10T20:57:03.792Z,101480.66
2023-05-10T20:59:30.407Z,101488.97
2023-05-10T21:01:57.599Z,101479.47
2023-05-10T21:04:25.366Z,101477.97
2023-05-10T21:06:51.995Z,101479.16
2023-05-10T21:09:18.602Z,101480.78
2023-05-10T21:11:45.076Z,101474.81
2023-05-10T21:14:11.452Z,101473.78
2023-05-10T21:16:37.928Z,101474.53
2023-05-10T21:19:04.563Z,101478.81
2023-05-10T21:21:31.200Z,101473.91
2023-05-10T21:23:57.589Z,101483.44
2023-05-10T21:26:24.090Z,101472.88
2023-05-10T21:28:50.518Z,101479.44
2023-05-10T21:31:17.036Z,101471.09
2023-05-10T21:33:43.644Z,101468.56
2023-05-10T21:36:10.169Z,101467.53
2023-05-10T21:38:36.772Z,101471.38
2023-05-10T21:41:06.960Z,101463.06
2023-05-10T21:43:33.866Z,101464.81
2023-05-10T21:46:00.315Z,101464.63
2023-05-10T21:48:26.852Z,101456.75
2023-05-10T21:50:53.351Z,101464.03
2023-05-10T21:53:19.847Z,101474.41
2023-05-10T21:55:46.479Z,101473.25
2023-05-10T21:58:12.916Z,101465.22
2023-05-10T22:00:39.321Z,101461.06
2023-05-10T22:03:05.916Z,101466.84
2023-05-10T22:05:32.576Z,101470.81
2023-05-10T22:07:59.012Z,101473.78
2023-05-10T22:10:25.619Z,101471.78
2023-05-10T22:12:52.127Z,101471.03
2023-05-10T22:15:18.625Z,101475.19
2023-05-10T22:17:45.125Z,101489.75
2023-05-10T22:20:11.792Z,101483.34
2023-05-10T22:22:38.213Z,101492.56
2023-05-10T22:25:07.327Z,101489.56
2023-05-10T22:27:34.103Z,101483.91
2023-05-10T22:30:00.655Z,101484.22
2023-05-10T22:32:27.255Z,101482.00
2023-05-10T22:34:53.750Z,101481.06
2023-05-10T22:37:20.200Z,101486.22
2023-05-10T22:39:46.880Z,101480.44
2023-05-10T22:42:13.371Z,101480.75
2023-05-10T22:44:39.971Z,101492.19
2023-05-10T22:47:07.967Z,101490.69
2023-05-10T22:49:34.856Z,101487.41
2023-05-10T22:52:01.713Z,101487.09
2023-05-10T22:54:28.176Z,101482.63
2023-05-10T22:56:55.998Z,101487.22
2023-05-10T22:59:22.524Z,101484.38
2023-05-10T23:01:49.196Z,101489.84
2023-05-10T23:04:15.995Z,101483.78
2023-05-10T23:06:42.542Z,101484.94
2023-05-10T23:09:09.772Z,101488.50
2023-05-10T23:11:36.542Z,101487.13
2023-05-10T23:14:03.246Z,101491.09
2023-05-10T23:16:30.485Z,101493.88
2023-05-10T23:18:57.105Z,101493.88
2023-05-10T23:21:25.090Z,101497.75
2023-05-10T23:23:51.727Z,101492.50
2023-05-10T23:26:18.529Z,101502.88
2023-05-10T23:28:45.048Z,101502.13
2023-05-10T23:31:11.514Z,101499.47
2023-05-10T23:33:38.054Z,101505.88
2023-05-10T23:36:04.724Z,101502.03
2023-05-10T23:38:31.125Z,101504.69
2023-05-10T23:40:57.626Z,101505.00
2023-05-10T23:43:25.236Z,101497.00
2023-05-10T23:45:56.602Z,101505.56
2023-05-10T23:48:23.802Z,101501.41
2023-05-10T23:50:50.665Z,101503.31
2023-05-10T23:53:17.176Z,101503.63
2023-05-10T23:55:44.011Z,101497.41
2023-05-10T23:58:10.599Z,101498.91
